sensor_id;sensor_type;location;lat;lon;timestamp;P1;durP1;ratioP1;P2;durP2;ratioP2
45232;SDS011;30969;51.052;17.056;2022-09-16T00:01:17;3.97;;;1.63;;
45232;SDS011;30969;51.052;17.056;2022-09-16T00:06:25;4.07;;;1.50;;
45232;SDS011;30969;51.052;17.056;2022-09-16T00:11:31;11.48;;;2.58;;
45232;SDS011;30969;51.052;17.056;2022-09-16T00:16:35;9.00;;;2.28;;
45232;SDS011;30969;51.052;17.056;2022-09-16T00:21:40;4.68;;;1.80;;
45232;SDS011;30969;51.052;17.056;2022-09-16T00:26:44;3.65;;;1.90;;
45232;SDS011;30969;51.052;17.056;2022-09-16T00:31:47;4.75;;;1.70;;
45232;SDS011;30969;51.052;17.056;2022-09-16T00:36:52;4.32;;;2.15;;
45232;SDS011;30969;51.052;17.056;2022-09-16T00:41:55;5.65;;;2.10;;
45232;SDS011;30969;51.052;17.056;2022-09-16T00:46:58;5.32;;;1.85;;
45232;SDS011;30969;51.052;17.056;2022-09-16T00:52:04;7.50;;;1.70;;
45232;SDS011;30969;51.052;17.056;2022-09-16T00:57:08;3.08;;;1.52;;
45232;SDS011;30969;51.052;17.056;2022-09-16T01:02:15;3.58;;;1.60;;
45232;SDS011;30969;51.052;17.056;2022-09-16T01:07:24;5.32;;;2.10;;
45232;SDS011;30969;51.052;17.056;2022-09-16T01:12:30;5.05;;;3.63;;
45232;SDS011;30969;51.052;17.056;2022-09-16T01:17:42;7.95;;;4.30;;
45232;SDS011;30969;51.052;17.056;2022-09-16T01:23:18;8.57;;;3.90;;
45232;SDS011;30969;51.052;17.056;2022-09-16T01:28:52;4.93;;;2.60;;
45232;SDS011;30969;51.052;17.056;2022-09-16T01:34:21;5.03;;;2.33;;
45232;SDS011;30969;51.052;17.056;2022-09-16T01:39:34;5.70;;;1.90;;
45232;SDS011;30969;51.052;17.056;2022-09-16T01:44:52;4.95;;;1.48;;
45232;SDS011;30969;51.052;17.056;2022-09-16T01:50:04;5.72;;;1.30;;
45232;SDS011;30969;51.052;17.056;2022-09-16T01:55:16;4.95;;;1.55;;
45232;SDS011;30969;51.052;17.056;2022-09-16T02:00:24;5.22;;;2.60;;
45232;SDS011;30969;51.052;17.056;2022-09-16T02:05:30;6.93;;;1.40;;
45232;SDS011;30969;51.052;17.056;2022-09-16T02:10:38;5.65;;;1.23;;
45232;SDS011;30969;51.052;17.056;2022-09-16T02:15:43;4.88;;;1.23;;
45232;SDS011;30969;51.052;17.056;2022-09-16T02:20:53;2.53;;;1.15;;
45232;SDS011;30969;51.052;17.056;2022-09-16T02:25:59;5.78;;;1.75;;
45232;SDS011;30969;51.052;17.056;2022-09-16T02:31:07;6.22;;;1.40;;
45232;SDS011;30969;51.052;17.056;2022-09-16T02:36:14;2.30;;;1.35;;
45232;SDS011;30969;51.052;17.056;2022-09-16T02:41:21;5.03;;;2.05;;
45232;SDS011;30969;51.052;17.056;2022-09-16T02:46:25;4.75;;;1.17;;
45232;SDS011;30969;51.052;17.056;2022-09-16T02:51:38;2.92;;;1.55;;
45232;SDS011;30969;51.052;17.056;2022-09-16T02:56:47;3.70;;;1.33;;
45232;SDS011;30969;51.052;17.056;2022-09-16T03:01:51;7.72;;;1.13;;
45232;SDS011;30969;51.052;17.056;2022-09-16T03:06:56;2.60;;;1.00;;
45232;SDS011;30969;51.052;17.056;2022-09-16T03:12:03;4.53;;;1.52;;
45232;SDS011;30969;51.052;17.056;2022-09-16T03:17:25;2.00;;;1.35;;
45232;SDS011;30969;51.052;17.056;2022-09-16T03:22:44;3.63;;;1.90;;
45232;SDS011;30969;51.052;17.056;2022-09-16T03:27:52;1.95;;;1.08;;
45232;SDS011;30969;51.052;17.056;2022-09-16T03:33:03;3.80;;;1.02;;
45232;SDS011;30969;51.052;17.056;2022-09-16T03:38:12;3.60;;;1.00;;
45232;SDS011;30969;51.052;17.056;2022-09-16T03:43:18;4.22;;;1.58;;
45232;SDS011;30969;51.052;17.056;2022-09-16T03:48:22;4.18;;;1.05;;
45232;SDS011;30969;51.052;17.056;2022-09-16T03:53:26;4.50;;;1.27;;
45232;SDS011;30969;51.052;17.056;2022-09-16T03:58:30;4.22;;;1.65;;
45232;SDS011;30969;51.052;17.056;2022-09-16T04:03:33;3.35;;;1.40;;
45232;SDS011;30969;51.052;17.056;2022-09-16T04:08:39;5.00;;;1.75;;
45232;SDS011;30969;51.052;17.056;2022-09-16T04:13:45;4.40;;;1.70;;
45232;SDS011;30969;51.052;17.056;2022-09-16T04:18:48;6.00;;;1.77;;
45232;SDS011;30969;51.052;17.056;2022-09-16T04:23:53;6.18;;;1.60;;
45232;SDS011;30969;51.052;17.056;2022-09-16T04:28:57;4.88;;;1.55;;
45232;SDS011;30969;51.052;17.056;2022-09-16T04:34:00;3.67;;;1.60;;
45232;SDS011;30969;51.052;17.056;2022-09-16T04:39:05;6.70;;;1.92;;
45232;SDS011;30969;51.052;17.056;2022-09-16T04:44:09;5.40;;;1.50;;
45232;SDS011;30969;51.052;17.056;2022-09-16T04:49:12;2.97;;;1.27;;
45232;SDS011;30969;51.052;17.056;2022-09-16T04:54:17;5.95;;;1.30;;
45232;SDS011;30969;51.052;17.056;2022-09-16T04:59:21;3.33;;;1.45;;
45232;SDS011;30969;51.052;17.056;2022-09-16T05:04:24;3.20;;;1.50;;
45232;SDS011;30969;51.052;17.056;2022-09-16T05:09:29;3.83;;;1.42;;
45232;SDS011;30969;51.052;17.056;2022-09-16T05:14:32;3.47;;;1.25;;
45232;SDS011;30969;51.052;17.056;2022-09-16T05:19:36;4.03;;;1.58;;
45232;SDS011;30969;51.052;17.056;2022-09-16T05:24:40;5.57;;;1.77;;
45232;SDS011;30969;51.052;17.056;2022-09-16T05:29:45;4.28;;;1.40;;
45232;SDS011;30969;51.052;17.056;2022-09-16T05:34:48;2.90;;;1.40;;
45232;SDS011;30969;51.052;17.056;2022-09-16T05:39:53;3.65;;;1.63;;
45232;SDS011;30969;51.052;17.056;2022-09-16T05:44:57;3.92;;;1.30;;
45232;SDS011;30969;51.052;17.056;2022-09-16T05:50:00;5.35;;;1.80;;
45232;SDS011;30969;51.052;17.056;2022-09-16T05:55:05;5.00;;;1.73;;
45232;SDS011;30969;51.052;17.056;2022-09-16T06:00:10;5.28;;;2.25;;
45232;SDS011;30969;51.052;17.056;2022-09-16T06:05:14;4.10;;;2.05;;
45232;SDS011;30969;51.052;17.056;2022-09-16T06:10:19;4.10;;;2.33;;
45232;SDS011;30969;51.052;17.056;2022-09-16T06:15:22;5.00;;;2.15;;
45232;SDS011;30969;51.052;17.056;2022-09-16T06:20:26;3.97;;;2.60;;
45232;SDS011;30969;51.052;17.056;2022-09-16T06:25:30;3.80;;;2.33;;
45232;SDS011;30969;51.052;17.056;2022-09-16T06:30:34;5.00;;;1.80;;
45232;SDS011;30969;51.052;17.056;2022-09-16T06:35:38;3.30;;;1.98;;
45232;SDS011;30969;51.052;17.056;2022-09-16T06:40:42;3.58;;;2.00;;
45232;SDS011;30969;51.052;17.056;2022-09-16T06:45:46;2.78;;;2.00;;
45232;SDS011;30969;51.052;17.056;2022-09-16T06:50:55;5.50;;;2.45;;
45232;SDS011;30969;51.052;17.056;2022-09-16T06:56:01;10.15;;;3.08;;
45232;SDS011;30969;51.052;17.056;2022-09-16T07:01:06;5.70;;;2.00;;
45232;SDS011;30969;51.052;17.056;2022-09-16T07:06:11;6.97;;;2.63;;
45232;SDS011;30969;51.052;17.056;2022-09-16T07:11:19;15.52;;;4.03;;
45232;SDS011;30969;51.052;17.056;2022-09-16T07:16:25;7.60;;;1.50;;
45232;SDS011;30969;51.052;17.056;2022-09-16T07:21:29;4.22;;;1.67;;
45232;SDS011;30969;51.052;17.056;2022-09-16T07:26:34;4.25;;;1.48;;
45232;SDS011;30969;51.052;17.056;2022-09-16T07:31:38;5.63;;;1.30;;
45232;SDS011;30969;51.052;17.056;2022-09-16T07:36:42;3.33;;;1.27;;
45232;SDS011;30969;51.052;17.056;2022-09-16T07:41:52;3.95;;;1.27;;
45232;SDS011;30969;51.052;17.056;2022-09-16T07:46:56;8.18;;;2.28;;
45232;SDS011;30969;51.052;17.056;2022-09-16T07:52:00;4.40;;;1.10;;
45232;SDS011;30969;51.052;17.056;2022-09-16T07:57:06;4.35;;;1.20;;
45232;SDS011;30969;51.052;17.056;2022-09-16T08:02:10;5.72;;;1.13;;
45232;SDS011;30969;51.052;17.056;2022-09-16T08:07:13;6.90;;;1.10;;
45232;SDS011;30969;51.052;17.056;2022-09-16T08:12:20;3.75;;;1.20;;
45232;SDS011;30969;51.052;17.056;2022-09-16T08:17:24;3.40;;;1.25;;
45232;SDS011;30969;51.052;17.056;2022-09-16T08:22:34;5.88;;;3.42;;
45232;SDS011;30969;51.052;17.056;2022-09-16T08:27:39;3.63;;;0.93;;
45232;SDS011;30969;51.052;17.056;2022-09-16T08:32:42;3.20;;;1.27;;
45232;SDS011;30969;51.052;17.056;2022-09-16T08:37:47;3.90;;;1.13;;
45232;SDS011;30969;51.052;17.056;2022-09-16T08:42:54;2.50;;;0.98;;
45232;SDS011;30969;51.052;17.056;2022-09-16T08:48:06;5.10;;;2.55;;
45232;SDS011;30969;51.052;17.056;2022-09-16T08:53:32;2.70;;;1.00;;
45232;SDS011;30969;51.052;17.056;2022-09-16T08:58:41;4.47;;;1.35;;
45232;SDS011;30969;51.052;17.056;2022-09-16T09:03:47;3.42;;;1.30;;
45232;SDS011;30969;51.052;17.056;2022-09-16T09:08:53;3.35;;;0.90;;
45232;SDS011;30969;51.052;17.056;2022-09-16T09:14:11;3.33;;;1.40;;
45232;SDS011;30969;51.052;17.056;2022-09-16T09:19:31;3.22;;;0.90;;
45232;SDS011;30969;51.052;17.056;2022-09-16T09:24:46;6.80;;;1.17;;
45232;SDS011;30969;51.052;17.056;2022-09-16T09:30:08;4.97;;;1.08;;
45232;SDS011;30969;51.052;17.056;2022-09-16T09:35:20;6.53;;;0.80;;
45232;SDS011;30969;51.052;17.056;2022-09-16T09:40:33;1.25;;;0.70;;
45232;SDS011;30969;51.052;17.056;2022-09-16T09:45:43;7.68;;;1.50;;
45232;SDS011;30969;51.052;17.056;2022-09-16T09:50:58;3.83;;;0.70;;
45232;SDS011;30969;51.052;17.056;2022-09-16T09:56:07;4.00;;;0.88;;
45232;SDS011;30969;51.052;17.056;2022-09-16T10:01:19;4.23;;;1.03;;
45232;SDS011;30969;51.052;17.056;2022-09-16T10:06:24;2.92;;;1.00;;
45232;SDS011;30969;51.052;17.056;2022-09-16T10:11:43;10.30;;;0.85;;
45232;SDS011;30969;51.052;17.056;2022-09-16T10:16:50;1.50;;;0.70;;
45232;SDS011;30969;51.052;17.056;2022-09-16T10:21:55;2.25;;;0.60;;
45232;SDS011;30969;51.052;17.056;2022-09-16T10:27:17;1.60;;;0.40;;
45232;SDS011;30969;51.052;17.056;2022-09-16T10:32:24;5.45;;;1.27;;
45232;SDS011;30969;51.052;17.056;2022-09-16T10:37:29;2.88;;;0.70;;
45232;SDS011;30969;51.052;17.056;2022-09-16T10:42:32;1.10;;;0.47;;
45232;SDS011;30969;51.052;17.056;2022-09-16T10:47:37;5.05;;;0.70;;
45232;SDS011;30969;51.052;17.056;2022-09-16T10:52:42;2.38;;;0.63;;
45232;SDS011;30969;51.052;17.056;2022-09-16T10:57:46;1.65;;;0.55;;
45232;SDS011;30969;51.052;17.056;2022-09-16T11:08:28;2.10;;;0.65;;
45232;SDS011;30969;51.052;17.056;2022-09-16T11:13:47;3.10;;;0.45;;
45232;SDS011;30969;51.052;17.056;2022-09-16T11:18:59;2.20;;;0.60;;
45232;SDS011;30969;51.052;17.056;2022-09-16T11:24:18;4.72;;;2.90;;
45232;SDS011;30969;51.052;17.056;2022-09-16T11:29:46;1.45;;;0.50;;
45232;SDS011;30969;51.052;17.056;2022-09-16T11:35:05;3.13;;;0.57;;
45232;SDS011;30969;51.052;17.056;2022-09-16T11:40:27;3.50;;;0.40;;
45232;SDS011;30969;51.052;17.056;2022-09-16T11:45:40;3.92;;;0.77;;
45232;SDS011;30969;51.052;17.056;2022-09-16T11:50:52;1.70;;;0.50;;
45232;SDS011;30969;51.052;17.056;2022-09-16T11:56:03;1.38;;;0.43;;
45232;SDS011;30969;51.052;17.056;2022-09-16T12:01:12;1.63;;;0.40;;
45232;SDS011;30969;51.052;17.056;2022-09-16T12:06:28;2.78;;;0.70;;
45232;SDS011;30969;51.052;17.056;2022-09-16T12:11:36;2.33;;;0.50;;
45232;SDS011;30969;51.052;17.056;2022-09-16T12:16:46;4.20;;;0.75;;
45232;SDS011;30969;51.052;17.056;2022-09-16T12:21:54;3.55;;;0.60;;
45232;SDS011;30969;51.052;17.056;2022-09-16T12:27:04;6.28;;;0.60;;
45232;SDS011;30969;51.052;17.056;2022-09-16T12:32:14;1.88;;;0.50;;
45232;SDS011;30969;51.052;17.056;2022-09-16T12:37:26;2.15;;;0.52;;
45232;SDS011;30969;51.052;17.056;2022-09-16T12:42:48;1.02;;;0.50;;
45232;SDS011;30969;51.052;17.056;2022-09-16T12:48:26;7.43;;;0.88;;
45232;SDS011;30969;51.052;17.056;2022-09-16T12:53:59;2.25;;;0.57;;
45232;SDS011;30969;51.052;17.056;2022-09-16T12:59:20;8.52;;;0.63;;
45232;SDS011;30969;51.052;17.056;2022-09-16T13:04:49;3.92;;;0.90;;
45232;SDS011;30969;51.052;17.056;2022-09-16T13:10:00;3.45;;;0.82;;
45232;SDS011;30969;51.052;17.056;2022-09-16T13:15:06;1.95;;;1.00;;
45232;SDS011;30969;51.052;17.056;2022-09-16T13:20:11;10.15;;;1.17;;
45232;SDS011;30969;51.052;17.056;2022-09-16T13:25:20;4.68;;;0.60;;
45232;SDS011;30969;51.052;17.056;2022-09-16T13:30:34;2.00;;;0.68;;
45232;SDS011;30969;51.052;17.056;2022-09-16T13:35:39;0.77;;;0.32;;
45232;SDS011;30969;51.052;17.056;2022-09-16T13:40:52;2.22;;;1.23;;
45232;SDS011;30969;51.052;17.056;2022-09-16T13:46:07;1.65;;;0.52;;
45232;SDS011;30969;51.052;17.056;2022-09-16T13:51:14;2.63;;;0.50;;
45232;SDS011;30969;51.052;17.056;2022-09-16T13:56:29;0.47;;;0.45;;
45232;SDS011;30969;51.052;17.056;2022-09-16T14:01:47;0.80;;;0.30;;
45232;SDS011;30969;51.052;17.056;2022-09-16T14:07:05;0.30;;;0.20;;
45232;SDS011;30969;51.052;17.056;2022-09-16T14:12:19;1.45;;;0.63;;
45232;SDS011;30969;51.052;17.056;2022-09-16T14:17:30;0.82;;;0.25;;
45232;SDS011;30969;51.052;17.056;2022-09-16T14:22:40;1.43;;;0.40;;
45232;SDS011;30969;51.052;17.056;2022-09-16T14:27:46;1.25;;;0.38;;
45232;SDS011;30969;51.052;17.056;2022-09-16T14:32:50;1.63;;;0.47;;
45232;SDS011;30969;51.052;17.056;2022-09-16T14:37:54;2.08;;;0.50;;
45232;SDS011;30969;51.052;17.056;2022-09-16T14:43:02;0.98;;;0.50;;
45232;SDS011;30969;51.052;17.056;2022-09-16T14:48:08;1.10;;;0.30;;
45232;SDS011;30969;51.052;17.056;2022-09-16T14:53:23;2.05;;;0.70;;
45232;SDS011;30969;51.052;17.056;2022-09-16T14:58:38;1.10;;;0.50;;
45232;SDS011;30969;51.052;17.056;2022-09-16T15:03:43;0.35;;;0.28;;
45232;SDS011;30969;51.052;17.056;2022-09-16T15:08:50;1.60;;;0.63;;
45232;SDS011;30969;51.052;17.056;2022-09-16T15:13:59;4.80;;;0.63;;
45232;SDS011;30969;51.052;17.056;2022-09-16T15:19:03;0.90;;;0.40;;
45232;SDS011;30969;51.052;17.056;2022-09-16T15:24:13;3.05;;;0.50;;
45232;SDS011;30969;51.052;17.056;2022-09-16T15:29:28;5.40;;;0.68;;
45232;SDS011;30969;51.052;17.056;2022-09-16T15:34:33;1.75;;;0.35;;
45232;SDS011;30969;51.052;17.056;2022-09-16T15:39:37;2.95;;;0.50;;
45232;SDS011;30969;51.052;17.056;2022-09-16T15:44:46;2.20;;;0.50;;
45232;SDS011;30969;51.052;17.056;2022-09-16T15:49:53;4.72;;;0.50;;
45232;SDS011;30969;51.052;17.056;2022-09-16T15:55:01;1.63;;;0.47;;
45232;SDS011;30969;51.052;17.056;2022-09-16T16:00:09;3.03;;;0.47;;
45232;SDS011;30969;51.052;17.056;2022-09-16T16:05:17;2.22;;;0.77;;
45232;SDS011;30969;51.052;17.056;2022-09-16T16:10:23;0.57;;;0.40;;
45232;SDS011;30969;51.052;17.056;2022-09-16T16:15:32;2.63;;;0.63;;
45232;SDS011;30969;51.052;17.056;2022-09-16T16:20:37;4.65;;;1.27;;
45232;SDS011;30969;51.052;17.056;2022-09-16T16:25:40;3.40;;;0.77;;
45232;SDS011;30969;51.052;17.056;2022-09-16T16:30:45;2.30;;;0.65;;
45232;SDS011;30969;51.052;17.056;2022-09-16T16:35:49;1.13;;;0.50;;
45232;SDS011;30969;51.052;17.056;2022-09-16T16:40:52;2.25;;;0.70;;
45232;SDS011;30969;51.052;17.056;2022-09-16T16:45:57;2.15;;;0.85;;
45232;SDS011;30969;51.052;17.056;2022-09-16T16:51:02;2.05;;;1.05;;
45232;SDS011;30969;51.052;17.056;2022-09-16T16:56:08;1.80;;;0.57;;
45232;SDS011;30969;51.052;17.056;2022-09-16T17:01:18;1.35;;;0.68;;
45232;SDS011;30969;51.052;17.056;2022-09-16T17:06:21;0.85;;;0.65;;
45232;SDS011;30969;51.052;17.056;2022-09-16T17:11:26;2.25;;;0.77;;
45232;SDS011;30969;51.052;17.056;2022-09-16T17:16:31;2.95;;;1.25;;
45232;SDS011;30969;51.052;17.056;2022-09-16T17:21:35;5.90;;;2.83;;
45232;SDS011;30969;51.052;17.056;2022-09-16T17:26:40;4.43;;;1.50;;
45232;SDS011;30969;51.052;17.056;2022-09-16T17:31:45;4.40;;;1.17;;
45232;SDS011;30969;51.052;17.056;2022-09-16T17:36:48;4.68;;;1.92;;
45232;SDS011;30969;51.052;17.056;2022-09-16T17:41:52;2.20;;;0.85;;
45232;SDS011;30969;51.052;17.056;2022-09-16T17:46:59;3.00;;;1.58;;
45232;SDS011;30969;51.052;17.056;2022-09-16T17:52:04;4.85;;;1.30;;
45232;SDS011;30969;51.052;17.056;2022-09-16T17:57:07;2.55;;;1.35;;
45232;SDS011;30969;51.052;17.056;2022-09-16T18:02:12;4.70;;;2.20;;
45232;SDS011;30969;51.052;17.056;2022-09-16T18:07:16;4.60;;;1.70;;
45232;SDS011;30969;51.052;17.056;2022-09-16T18:12:19;2.30;;;0.90;;
45232;SDS011;30969;51.052;17.056;2022-09-16T18:17:24;1.58;;;1.10;;
45232;SDS011;30969;51.052;17.056;2022-09-16T18:22:28;2.80;;;1.60;;
45232;SDS011;30969;51.052;17.056;2022-09-16T18:27:31;2.70;;;1.30;;
45232;SDS011;30969;51.052;17.056;2022-09-16T18:32:36;3.75;;;1.10;;
45232;SDS011;30969;51.052;17.056;2022-09-16T18:37:39;2.38;;;1.30;;
45232;SDS011;30969;51.052;17.056;2022-09-16T18:42:43;2.17;;;1.05;;
45232;SDS011;30969;51.052;17.056;2022-09-16T18:47:47;3.15;;;1.33;;
45232;SDS011;30969;51.052;17.056;2022-09-16T18:52:53;3.33;;;1.90;;
45232;SDS011;30969;51.052;17.056;2022-09-16T18:57:57;2.53;;;1.10;;
45232;SDS011;30969;51.052;17.056;2022-09-16T19:03:01;2.28;;;1.08;;
45232;SDS011;30969;51.052;17.056;2022-09-16T19:08:05;3.05;;;1.17;;
45232;SDS011;30969;51.052;17.056;2022-09-16T19:13:09;4.70;;;1.33;;
45232;SDS011;30969;51.052;17.056;2022-09-16T19:18:14;2.38;;;1.33;;
45232;SDS011;30969;51.052;17.056;2022-09-16T19:23:18;3.70;;;1.73;;
45232;SDS011;30969;51.052;17.056;2022-09-16T19:28:21;3.95;;;1.75;;
45232;SDS011;30969;51.052;17.056;2022-09-16T19:33:26;3.63;;;1.40;;
45232;SDS011;30969;51.052;17.056;2022-09-16T19:38:30;2.17;;;1.40;;
45232;SDS011;30969;51.052;17.056;2022-09-16T19:43:34;3.10;;;1.55;;
45232;SDS011;30969;51.052;17.056;2022-09-16T19:48:40;2.72;;;1.50;;
45232;SDS011;30969;51.052;17.056;2022-09-16T19:53:45;6.07;;;1.95;;
45232;SDS011;30969;51.052;17.056;2022-09-16T19:58:49;3.72;;;2.15;;
45232;SDS011;30969;51.052;17.056;2022-09-16T20:03:55;5.53;;;1.65;;
45232;SDS011;30969;51.052;17.056;2022-09-16T20:08:59;3.22;;;1.83;;
45232;SDS011;30969;51.052;17.056;2022-09-16T20:14:04;5.45;;;2.08;;
45232;SDS011;30969;51.052;17.056;2022-09-16T20:19:14;2.67;;;1.42;;
45232;SDS011;30969;51.052;17.056;2022-09-16T20:24:20;3.15;;;1.42;;
45232;SDS011;30969;51.052;17.056;2022-09-16T20:29:26;4.85;;;1.38;;
45232;SDS011;30969;51.052;17.056;2022-09-16T20:34:31;2.63;;;1.50;;
45232;SDS011;30969;51.052;17.056;2022-09-16T20:39:34;3.42;;;1.98;;
45232;SDS011;30969;51.052;17.056;2022-09-16T20:44:37;1.80;;;1.10;;
45232;SDS011;30969;51.052;17.056;2022-09-16T20:49:42;6.05;;;1.55;;
45232;SDS011;30969;51.052;17.056;2022-09-16T20:54:46;14.07;;;1.65;;
45232;SDS011;30969;51.052;17.056;2022-09-16T20:59:49;4.70;;;1.08;;
45232;SDS011;30969;51.052;17.056;2022-09-16T21:04:54;4.32;;;1.45;;
45232;SDS011;30969;51.052;17.056;2022-09-16T21:09:58;2.05;;;1.30;;
45232;SDS011;30969;51.052;17.056;2022-09-16T21:15:01;4.78;;;1.77;;
45232;SDS011;30969;51.052;17.056;2022-09-16T21:20:07;2.25;;;1.42;;
45232;SDS011;30969;51.052;17.056;2022-09-16T21:25:11;6.60;;;1.88;;
45232;SDS011;30969;51.052;17.056;2022-09-16T21:30:14;6.43;;;3.25;;
45232;SDS011;30969;51.052;17.056;2022-09-16T21:35:20;3.50;;;1.90;;
45232;SDS011;30969;51.052;17.056;2022-09-16T21:40:24;5.28;;;2.30;;
45232;SDS011;30969;51.052;17.056;2022-09-16T21:45:27;3.00;;;1.77;;
45232;SDS011;30969;51.052;17.056;2022-09-16T21:50:32;5.53;;;2.13;;
45232;SDS011;30969;51.052;17.056;2022-09-16T21:55:36;5.15;;;2.38;;
45232;SDS011;30969;51.052;17.056;2022-09-16T22:00:40;5.43;;;2.35;;
45232;SDS011;30969;51.052;17.056;2022-09-16T22:05:45;5.10;;;2.33;;
45232;SDS011;30969;51.052;17.056;2022-09-16T22:10:48;6.05;;;2.53;;
45232;SDS011;30969;51.052;17.056;2022-09-16T22:15:51;4.57;;;2.00;;
45232;SDS011;30969;51.052;17.056;2022-09-16T22:21:01;5.88;;;2.40;;
45232;SDS011;30969;51.052;17.056;2022-09-16T22:26:05;6.07;;;1.73;;
45232;SDS011;30969;51.052;17.056;2022-09-16T22:31:11;3.67;;;2.10;;
45232;SDS011;30969;51.052;17.056;2022-09-16T22:36:18;5.50;;;2.30;;
45232;SDS011;30969;51.052;17.056;2022-09-16T22:41:23;4.68;;;2.30;;
45232;SDS011;30969;51.052;17.056;2022-09-16T22:46:29;4.32;;;2.53;;
45232;SDS011;30969;51.052;17.056;2022-09-16T22:51:35;4.35;;;2.13;;
45232;SDS011;30969;51.052;17.056;2022-09-16T22:56:40;4.13;;;2.58;;
45232;SDS011;30969;51.052;17.056;2022-09-16T23:01:43;3.75;;;2.40;;
45232;SDS011;30969;51.052;17.056;2022-09-16T23:06:48;6.60;;;2.25;;
45232;SDS011;30969;51.052;17.056;2022-09-16T23:11:52;6.55;;;4.15;;
45232;SDS011;30969;51.052;17.056;2022-09-16T23:16:56;6.60;;;2.17;;
45232;SDS011;30969;51.052;17.056;2022-09-16T23:22:00;4.97;;;2.42;;
45232;SDS011;30969;51.052;17.056;2022-09-16T23:27:04;6.30;;;2.35;;
45232;SDS011;30969;51.052;17.056;2022-09-16T23:32:07;3.63;;;1.92;;
45232;SDS011;30969;51.052;17.056;2022-09-16T23:37:12;3.53;;;1.80;;
45232;SDS011;30969;51.052;17.056;2022-09-16T23:42:15;4.63;;;2.50;;
45232;SDS011;30969;51.052;17.056;2022-09-16T23:47:18;3.15;;;1.85;;
45232;SDS011;30969;51.052;17.056;2022-09-16T23:52:25;3.42;;;1.67;;
45232;SDS011;30969;51.052;17.056;2022-09-16T23:57:28;3.72;;;1.83;;
